Time;durP1;ratioP1;P1;durP2;ratioP2;P2;SDS_P1;SDS_P2;PMS_P1;PMS_P2;Temp;Humidity;BMP_temperature;BMP_pressure;BME280_temperature;BME280_humidity;BME280_pressure;Samples;Min_cycle;Max_cycle;Signal;HPM_P1;HPM_P2
2022/09/19 00:01:32;;;;;;;0.00;0.00;;;;;;;10.14;100.00;98098.17;1756843;80;21504;-47
2022/09/19 00:04:02;;;;;;;1.27;0.00;;;;;;;10.14;100.00;98093.28;1749535;80;21675;-47
2022/09/19 00:06:30;;;;;;;0.00;0.00;;;;;;;10.14;100.00;98098.66;1759244;79;21017;-46
2022/09/19 00:08:57;;;;;;;2.62;0.00;;;;;;;10.14;100.00;98098.66;1754017;80;21110;-48
2022/09/19 00:11:25;;;;;;;1.25;0.00;;;;;;;10.14;100.00;98111.63;1759174;80;20926;-45
2022/09/19 00:13:53;;;;;;;0.00;0.00;;;;;;;10.14;100.00;98101.34;1696491;82;21166;-48
2022/09/19 00:16:26;;;;;;;0.00;0.00;;;;;;;10.13;100.00;98114.41;1760055;79;20887;-49
2022/09/19 00:19:51;;;;;;;0.00;0.00;;;;;;;10.11;100.00;98095.73;1791836;78;22668;-47
2022/09/19 00:22:18;;;;;;;0.00;0.00;;;;;;;10.08;100.00;98105.84;1764923;79;22254;-47
2022/09/19 00:24:49;;;;;;;0.00;0.00;;;;;;;10.06;100.00;98106.42;1767911;79;21794;-49
2022/09/19 00:27:22;;;;;;;0.00;0.00;;;;;;;10.04;100.00;98114.59;1766697;79;20961;-48
2022/09/19 00:29:49;;;;;;;0.03;0.00;;;;;;;10.05;100.00;98110.94;1766112;78;20969;-45
2022/09/19 00:32:16;;;;;;;0.10;0.00;;;;;;;10.06;100.00;98108.63;1768781;79;20874;-45
2022/09/19 00:34:45;;;;;;;0.10;0.00;;;;;;;10.10;100.00;98107.45;1770943;79;20902;-46
2022/09/19 00:37:11;;;;;;;0.20;0.10;;;;;;;10.12;100.00;98100.11;1766190;78;21137;-45
2022/09/19 00:39:38;;;;;;;0.10;0.10;;;;;;;10.17;100.00;98108.75;1769218;79;20945;-48
2022/09/19 00:42:07;;;;;;;0.42;0.00;;;;;;;10.19;100.00;98104.61;1767100;79;20981;-48
2022/09/19 00:44:41;;;;;;;0.10;0.10;;;;;;;10.20;100.00;98108.55;1773368;78;20928;-49
2022/09/19 00:47:14;;;;;;;0.10;0.10;;;;;;;10.22;100.00;98104.38;1765401;79;20930;-47
2022/09/19 00:49:43;;;;;;;0.10;0.10;;;;;;;10.23;100.00;98111.47;1770210;78;21132;-46
2022/09/19 00:52:19;;;;;;;0.10;0.10;;;;;;;10.26;100.00;98112.61;1770296;79;20894;-46
2022/09/19 00:54:46;;;;;;;0.30;0.10;;;;;;;10.29;100.00;98107.50;1764183;79;20922;-46
2022/09/19 00:57:14;;;;;;;0.10;0.10;;;;;;;10.31;100.00;98109.56;1768928;78;20998;-45
2022/09/19 00:59:44;;;;;;;0.20;0.10;;;;;;;10.32;100.00;98108.11;1766539;79;21080;-48
2022/09/19 01:02:11;;;;;;;0.45;0.10;;;;;;;10.34;100.00;98109.35;1745070;80;21099;-46
2022/09/19 01:04:38;;;;;;;0.10;0.10;;;;;;;10.35;100.00;98112.42;1767160;79;21025;-49
2022/09/19 01:07:24;;;;;;;0.10;0.10;;;;;;;10.37;100.00;98113.17;1749389;79;21029;-45
2022/09/19 01:10:19;;;;;;;0.20;0.10;;;;;;;10.37;100.00;98115.86;1764176;79;21054;-49
2022/09/19 01:13:10;;;;;;;0.20;0.10;;;;;;;10.38;100.00;98122.97;1759625;78;21053;-47
2022/09/19 01:15:45;;;;;;;0.10;0.10;;;;;;;10.39;100.00;98120.14;1770526;78;21300;-47
2022/09/19 01:18:12;;;;;;;0.20;0.10;;;;;;;10.40;100.00;98116.97;1763682;79;21046;-47
2022/09/19 01:24:20;;;;;;;0.10;0.10;;;;;;;10.45;100.00;98121.05;1752242;79;21062;-45
2022/09/19 01:27:18;;;;;;;0.17;0.10;;;;;;;10.51;100.00;98121.08;1756822;79;21022;-48
2022/09/19 01:30:04;;;;;;;0.13;0.13;;;;;;;10.56;100.00;98117.55;1753256;79;21720;-49
2022/09/19 01:32:37;;;;;;;0.20;0.20;;;;;;;10.59;100.00;98128.09;1752027;79;21069;-46
2022/09/19 01:35:06;;;;;;;0.40;0.20;;;;;;;10.61;100.00;98123.47;1755445;79;21025;-47
2022/09/19 01:37:43;;;;;;;0.20;0.20;;;;;;;10.66;100.00;98123.11;1753841;79;21525;-46
2022/09/19 01:40:10;;;;;;;0.45;0.40;;;;;;;10.67;100.00;98127.53;1751139;79;21057;-48
2022/09/19 01:42:57;;;;;;;0.20;0.17;;;;;;;10.69;100.00;98124.24;1754432;79;21202;-49
2022/09/19 01:45:32;;;;;;;0.40;0.25;;;;;;;10.69;100.00;98129.62;1755731;79;21042;-49
2022/09/19 01:48:24;;;;;;;0.30;0.20;;;;;;;10.69;100.00;98139.91;1756003;79;21634;-48
2022/09/19 01:51:10;;;;;;;0.30;0.10;;;;;;;10.68;100.00;98134.63;1754026;79;21572;-47
2022/09/19 01:53:58;;;;;;;0.57;0.20;;;;;;;10.71;100.00;98136.63;1756416;79;21067;-47
2022/09/19 01:56:45;;;;;;;;;;;;;;;10.74;100.00;98134.16;1744459;79;21212;-48
2022/09/19 01:59:38;;;;;;;0.30;0.23;;;;;;;10.77;100.00;98137.98;1754106;79;20168;-49
2022/09/19 02:02:28;;;;;;;0.70;0.25;;;;;;;10.75;100.00;98134.55;1752115;79;22144;-47
2022/09/19 02:05:06;;;;;;;0.20;0.20;;;;;;;10.72;100.00;98145.03;1751489;79;21472;-48
2022/09/19 02:07:56;;;;;;;0.20;0.20;;;;;;;10.72;100.00;98145.03;1753563;80;21097;-47
2022/09/19 02:10:34;;;;;;;0.45;0.30;;;;;;;10.72;100.00;98175.98;1754708;79;21153;-47
2022/09/19 02:13:03;;;;;;;0.45;0.20;;;;;;;10.71;100.00;98181.51;1678178;79;21101;-47
2022/09/19 02:15:48;;;;;;;1.65;0.20;;;;;;;10.73;100.00;98192.51;1748382;79;21038;-48
2022/09/19 02:18:30;;;;;;;0.15;0.10;;;;;;;10.73;100.00;98192.51;1760877;79;21086;-46
2022/09/19 02:21:03;;;;;;;0.10;0.10;;;;;;;10.75;100.00;98189.71;1737292;80;21011;-46
2022/09/19 02:23:30;;;;;;;0.37;0.20;;;;;;;10.79;100.00;98195.26;1739397;80;21257;-46
2022/09/19 02:25:58;;;;;;;0.20;0.20;;;;;;;10.82;100.00;98197.22;1745047;80;21077;-46
2022/09/19 02:28:30;;;;;;;0.62;0.20;;;;;;;10.84;100.00;98192.59;1713036;80;21121;-46
2022/09/19 02:30:58;;;;;;;1.85;0.20;;;;;;;10.87;100.00;98192.38;1745666;80;21026;-47
2022/09/19 02:33:24;;;;;;;0.30;0.28;;;;;;;10.90;100.00;98192.61;1714018;81;21077;-47
2022/09/19 02:36:03;;;;;;;0.47;0.30;;;;;;;10.89;100.00;98205.69;1710258;81;22139;-46
2022/09/19 02:38:42;;;;;;;1.17;0.30;;;;;;;10.83;100.00;98199.42;1741458;80;21015;-46
2022/09/19 02:41:17;;;;;;;2.30;0.30;;;;;;;10.83;100.00;98199.42;1712866;80;21241;-49
2022/09/19 02:44:00;;;;;;;2.45;0.20;;;;;;;10.84;100.00;98213.26;1712104;80;21075;-47
2022/09/19 02:46:39;;;;;;;0.80;0.20;;;;;;;10.83;100.00;98220.48;1716015;81;21539;-47
2022/09/19 02:49:10;;;;;;;0.40;0.30;;;;;;;10.82;100.00;98230.00;1740947;80;21300;-48
2022/09/19 02:51:41;;;;;;;1.72;0.30;;;;;;;10.82;100.00;98225.48;1742472;80;21031;-47
2022/09/19 02:54:14;;;;;;;0.20;0.20;;;;;;;10.82;100.00;98225.48;1733579;80;21081;-49
2022/09/19 02:56:41;;;;;;;0.20;0.20;;;;;;;10.84;100.00;98240.17;1736520;80;21061;-46
2022/09/19 02:59:16;;;;;;;0.42;0.20;;;;;;;10.84;100.00;98240.17;1731774;80;21128;-49
2022/09/19 03:01:49;;;;;;;0.30;0.28;;;;;;;10.85;100.00;98247.28;1740435;80;22520;-46
2022/09/19 03:04:18;;;;;;;2.37;0.40;;;;;;;10.85;100.00;98247.28;1736326;80;21077;-47
2022/09/19 03:07:06;;;;;;;1.17;0.30;;;;;;;10.85;100.00;98248.63;1736803;80;28418;-46
2022/09/19 03:09:32;;;;;;;0.62;0.20;;;;;;;10.84;100.00;98254.98;1739635;80;20909;-47
2022/09/19 03:12:24;;;;;;;0.33;0.33;;;;;;;10.81;100.00;98260.09;1743540;80;21077;-47
2022/09/19 03:14:58;;;;;;;2.20;0.30;;;;;;;10.81;100.00;98260.09;1741085;80;21055;-47
2022/09/19 03:17:19;;;;;;;0.30;0.25;;;;;;;10.79;100.00;98261.20;1742082;80;20962;-47
2022/09/19 03:19:47;;;;;;;0.50;0.30;;;;;;;10.78;100.00;98265.72;1752903;79;21939;-46
2022/09/19 03:22:14;;;;;;;1.05;0.30;;;;;;;10.78;100.00;98262.17;1767137;79;21282;-48
2022/09/19 03:24:41;;;;;;;0.50;0.28;;;;;;;10.78;100.00;98272.93;1763628;79;20871;-47
2022/09/19 03:27:08;;;;;;;0.30;0.23;;;;;;;10.77;100.00;98271.20;1769924;79;21085;-49
2022/09/19 03:29:36;;;;;;;0.25;0.20;;;;;;;10.77;100.00;98271.20;1739584;80;21539;-47
2022/09/19 03:32:03;;;;;;;0.57;0.30;;;;;;;10.79;100.00;98281.38;1760883;79;21365;-49
2022/09/19 03:34:32;;;;;;;0.37;0.30;;;;;;;10.80;100.00;98289.32;1770167;80;21597;-47
2022/09/19 03:37:00;;;;;;;1.15;0.40;;;;;;;10.79;100.00;98290.80;1756638;79;21533;-46
2022/09/19 03:39:28;;;;;;;0.40;0.30;;;;;;;10.80;100.00;98301.44;1703988;82;22240;-48
2022/09/19 03:41:56;;;;;;;1.65;0.28;;;;;;;10.83;100.00;98297.67;1707254;82;20889;-47
2022/09/19 03:44:22;;;;;;;1.55;0.30;;;;;;;10.84;100.00;98302.95;1706491;82;20910;-48
2022/09/19 03:46:48;;;;;;;0.60;0.30;;;;;;;10.87;100.00;98303.22;1699456;82;21337;-48
2022/09/19 03:49:16;;;;;;;0.95;0.30;;;;;;;10.87;100.00;98303.22;1768724;79;20907;-50
2022/09/19 03:51:46;;;;;;;1.45;0.40;;;;;;;10.84;100.00;98308.33;1762343;79;21106;-48
2022/09/19 03:54:11;;;;;;;0.42;0.30;;;;;;;10.82;100.00;98309.41;1761247;79;21440;-47
2022/09/19 03:56:40;;;;;;;4.28;0.30;;;;;;;10.78;100.00;98314.16;1763291;79;20958;-48
2022/09/19 03:59:07;;;;;;;0.30;0.30;;;;;;;10.77;100.00;98321.86;1760112;79;21124;-49
2022/09/19 04:01:34;;;;;;;0.50;0.30;;;;;;;10.76;100.00;98320.14;1754723;80;21568;-49
2022/09/19 04:04:01;;;;;;;0.37;0.30;;;;;;;10.77;100.00;98337.14;1757923;79;21099;-46
2022/09/19 04:06:27;;;;;;;0.80;0.30;;;;;;;10.77;100.00;98337.14;1761254;79;21084;-48
2022/09/19 04:08:54;;;;;;;0.35;0.33;;;;;;;10.77;100.00;98331.28;1758722;79;21044;-47
2022/09/19 04:11:23;;;;;;;0.85;0.30;;;;;;;10.79;100.00;98340.11;1756828;79;21543;-47
2022/09/19 04:13:51;;;;;;;0.82;0.30;;;;;;;10.84;100.00;98355.92;1758525;80;21026;-45
2022/09/19 04:16:17;;;;;;;1.12;0.40;;;;;;;10.85;100.00;98351.78;1758090;79;21229;-48
2022/09/19 04:18:47;;;;;;;0.37;0.30;;;;;;;10.85;100.00;98358.99;1755404;80;21466;-46
2022/09/19 04:21:16;;;;;;;0.93;0.30;;;;;;;10.85;100.00;98358.99;1761736;79;21030;-48
2022/09/19 04:23:45;;;;;;;2.15;0.30;;;;;;;10.86;100.00;98371.00;1761491;79;21127;-48
2022/09/19 04:26:17;;;;;;;0.40;0.30;;;;;;;10.86;100.00;98368.31;1693194;79;21050;-47
2022/09/19 04:28:44;;;;;;;0.53;0.30;;;;;;;10.87;100.00;98370.03;1765048;79;21805;-46
2022/09/19 04:31:12;;;;;;;0.45;0.30;;;;;;;10.93;100.00;98379.49;1761986;79;21060;-48
2022/09/19 04:33:39;;;;;;;0.40;0.40;;;;;;;10.93;100.00;98379.49;1759583;79;21133;-49
2022/09/19 04:36:08;;;;;;;0.40;0.40;;;;;;;10.94;100.00;98377.19;1766059;79;21095;-47
2022/09/19 04:38:36;;;;;;;0.50;0.33;;;;;;;10.92;100.00;98382.67;1765081;79;21065;-48
2022/09/19 04:41:06;;;;;;;1.45;0.30;;;;;;;10.91;100.00;98398.44;1762971;79;21116;-49
2022/09/19 04:43:33;;;;;;;0.55;0.35;;;;;;;10.91;100.00;98394.89;1762531;80;21029;-47
2022/09/19 04:46:16;;;;;;;0.50;0.40;;;;;;;10.91;100.00;98405.17;1761492;79;21074;-52
2022/09/19 04:48:46;;;;;;;0.65;0.37;;;;;;;10.92;100.00;98406.91;1762066;79;21058;-49
2022/09/19 04:51:14;;;;;;;0.93;0.30;;;;;;;10.93;100.00;98407.28;1704875;82;21084;-49
2022/09/19 04:53:40;;;;;;;0.47;0.30;;;;;;;10.95;100.00;98410.73;1758765;79;21149;-48
2022/09/19 04:56:08;;;;;;;1.30;0.40;;;;;;;10.98;100.00;98407.80;1762103;79;21136;-49
2022/09/19 04:58:40;;;;;;;0.78;0.40;;;;;;;11.02;100.00;98411.63;1761589;80;21077;-48
2022/09/19 05:01:08;;;;;;;0.70;0.40;;;;;;;11.02;100.00;98411.63;1763814;79;21085;-47
2022/09/19 05:03:36;;;;;;;0.30;0.30;;;;;;;11.03;100.00;98429.52;1765683;79;21065;-47
2022/09/19 05:06:04;;;;;;;0.47;0.40;;;;;;;10.99;100.00;98414.91;1757802;80;22161;-49
2022/09/19 05:08:32;;;;;;;1.25;0.40;;;;;;;11.01;100.00;98424.23;1764640;79;21049;-47
2022/09/19 05:11:10;;;;;;;0.40;0.30;;;;;;;11.00;100.00;98431.45;1759025;79;21022;-47
2022/09/19 05:13:38;;;;;;;0.47;0.35;;;;;;;11.02;100.00;98451.54;1762370;80;21077;-49
2022/09/19 05:16:06;;;;;;;1.47;0.47;;;;;;;11.04;100.00;98442.88;1733483;80;21093;-48
2022/09/19 05:18:37;;;;;;;1.20;0.88;;;;;;;11.06;100.00;98444.95;1725591;80;21007;-47
2022/09/19 05:21:11;;;;;;;1.55;0.50;;;;;;;11.12;100.00;98454.45;1727029;81;21543;-48
2022/09/19 05:23:39;;;;;;;2.02;0.55;;;;;;;11.17;100.00;98460.36;1687309;82;21372;-48
2022/09/19 05:26:09;;;;;;;0.50;0.50;;;;;;;11.21;100.00;98468.13;1733109;81;21086;-48
2022/09/19 05:28:36;;;;;;;0.60;0.40;;;;;;;11.25;100.00;98475.00;1724095;81;21540;-47
2022/09/19 05:31:05;;;;;;;0.72;0.40;;;;;;;11.26;100.00;98471.83;1728897;80;21137;-46
2022/09/19 05:33:32;;;;;;;1.75;0.40;;;;;;;11.25;100.00;98475.00;1702560;82;22646;-48
2022/09/19 05:36:01;;;;;;;0.47;0.45;;;;;;;11.27;100.00;98483.84;1726690;81;21051;-50
2022/09/19 05:38:39;;;;;;;1.25;0.40;;;;;;;11.28;100.00;98486.91;1727981;82;21101;-47
2022/09/19 05:41:19;;;;;;;0.80;0.50;;;;;;;11.28;100.00;98492.30;1647028;82;21701;-48
2022/09/19 05:44:00;;;;;;;2.83;0.70;;;;;;;11.30;100.00;98500.28;1710881;82;21232;-47
2022/09/19 05:46:27;;;;;;;1.70;0.50;;;;;;;11.26;100.00;98505.49;1708497;82;21476;-50
2022/09/19 05:48:56;;;;;;;0.40;0.40;;;;;;;11.26;100.00;98505.49;1706845;82;21701;-47
2022/09/19 05:51:22;;;;;;;0.90;0.50;;;;;;;11.24;100.00;98515.02;1704472;83;21065;-46
2022/09/19 05:53:59;;;;;;;2.20;0.50;;;;;;;11.21;100.00;98521.13;1705087;82;21037;-50
2022/09/19 05:56:29;;;;;;;0.85;0.50;;;;;;;11.19;100.00;98517.67;1701539;82;22811;-48
2022/09/19 05:59:03;;;;;;;0.65;0.50;;;;;;;11.24;100.00;98528.49;1710124;82;21108;-48
2022/09/19 06:01:31;;;;;;;1.07;0.47;;;;;;;11.24;100.00;98528.49;1708485;82;21031;-48
2022/09/19 06:03:59;;;;;;;0.70;0.55;;;;;;;11.26;100.00;98528.39;1709069;82;21160;-48
2022/09/19 06:06:29;;;;;;;2.45;1.02;;;;;;;11.27;100.00;98538.20;1706944;82;21107;-48
2022/09/19 06:08:57;;;;;;;2.30;0.53;;;;;;;11.28;100.00;98544.83;1709499;82;21141;-47
2022/09/19 06:11:25;;;;;;;4.42;0.60;;;;;;;11.30;100.00;98546.08;1708474;82;21389;-50
2022/09/19 06:16:41;;;;;;;0.50;0.40;;;;;;;11.28;100.00;98554.74;1712130;82;20941;-49
2022/09/19 06:19:22;;;;;;;0.70;0.40;;;;;;;11.29;100.00;98563.20;1712564;82;21045;-47
2022/09/19 06:21:51;;;;;;;0.55;0.40;;;;;;;11.30;100.00;98565.80;1694974;82;21966;-47
2022/09/19 06:24:18;;;;;;;0.55;0.50;;;;;;;11.32;100.00;98576.44;1693088;82;21425;-46
2022/09/19 06:26:44;;;;;;;1.40;0.40;;;;;;;11.34;100.00;98583.45;1691101;82;21055;-49
2022/09/19 06:29:11;;;;;;;0.40;0.40;;;;;;;11.35;100.00;98582.49;1748089;80;20927;-46
2022/09/19 06:31:40;;;;;;;2.98;0.40;;;;;;;11.41;100.00;98588.41;1746729;80;21082;-49
2022/09/19 06:34:20;;;;;;;1.95;0.40;;;;;;;11.43;100.00;98590.03;1742063;80;21864;-50
2022/09/19 06:36:47;;;;;;;1.55;0.50;;;;;;;11.45;100.00;98589.94;1742597;80;22418;-48
2022/09/19 06:39:13;;;;;;;0.57;0.40;;;;;;;11.49;100.00;98599.03;1738172;80;21141;-48
2022/09/19 06:41:42;;;;;;;1.00;0.40;;;;;;;11.54;100.00;98604.11;1744562;80;21003;-47
2022/09/19 06:44:10;;;;;;;0.37;0.30;;;;;;;11.62;100.00;98607.13;1726029;80;21083;-49
2022/09/19 06:46:58;;;;;;;0.57;0.33;;;;;;;11.70;100.00;98614.19;1740278;80;21082;-48
2022/09/19 06:49:33;;;;;;;0.30;0.30;;;;;;;11.77;100.00;98615.50;1747167;80;20923;-47
2022/09/19 06:52:06;;;;;;;0.40;0.30;;;;;;;11.85;100.00;98612.26;1749086;80;21047;-48
2022/09/19 06:54:34;;;;;;;0.28;0.28;;;;;;;11.91;100.00;98614.54;1742885;80;21047;-50
2022/09/19 06:57:00;;;;;;;1.35;0.40;;;;;;;11.98;100.00;98619.87;1747088;80;21115;-50
2022/09/19 06:59:27;;;;;;;0.33;0.20;;;;;;;12.06;100.00;98625.57;1742932;80;21293;-47
2022/09/19 07:01:54;;;;;;;1.10;0.30;;;;;;;12.11;100.00;98618.00;1739554;80;21110;-46
2022/09/19 07:04:20;;;;;;;0.40;0.30;;;;;;;12.19;100.00;98626.39;1747008;80;21316;-47
2022/09/19 07:06:50;;;;;;;0.40;0.30;;;;;;;12.27;100.00;98631.23;1746848;80;21062;-47
2022/09/19 07:09:18;;;;;;;0.37;0.30;;;;;;;12.34;100.00;98641.94;1743471;80;21066;-48
2022/09/19 07:11:46;;;;;;;0.20;0.20;;;;;;;12.39;100.00;98645.19;1741169;80;21703;-47
2022/09/19 07:14:14;;;;;;;0.28;0.28;;;;;;;12.43;100.00;98648.89;1743058;80;21194;-49
2022/09/19 07:16:40;;;;;;;2.62;0.30;;;;;;;12.45;100.00;98649.64;1706788;82;21724;-49
2022/09/19 07:19:07;;;;;;;1.77;0.20;;;;;;;12.44;100.00;98647.05;1679749;83;21122;-47
2022/09/19 07:21:41;;;;;;;2.22;0.23;;;;;;;12.44;100.00;98660.55;1733469;80;21107;-47
2022/09/19 07:24:09;;;;;;;5.47;0.25;;;;;;;12.43;100.00;98654.77;1738008;80;21233;-49
2022/09/19 07:26:38;;;;;;;2.15;0.23;;;;;;;12.41;100.00;98661.66;1735421;80;21381;-48
2022/09/19 07:29:04;;;;;;;0.30;0.30;;;;;;;12.42;100.00;98669.23;1704694;82;20977;-50
2022/09/19 07:31:33;;;;;;;0.62;0.30;;;;;;;12.43;100.00;98658.81;1697789;82;22290;-47
2022/09/19 07:34:00;;;;;;;1.20;0.28;;;;;;;12.44;100.00;98667.30;1735330;80;21041;-48
2022/09/19 07:36:29;;;;;;;0.90;0.30;;;;;;;12.41;100.00;98672.94;1742148;80;21511;-48
2022/09/19 07:38:56;;;;;;;1.22;0.30;;;;;;;12.38;100.00;98682.11;1737843;80;21542;-48
2022/09/19 07:41:34;;;;;;;0.40;0.30;;;;;;;12.33;100.00;98696.91;1703243;82;21056;-47
2022/09/19 07:44:05;;;;;;;0.45;0.37;;;;;;;12.28;100.00;98682.87;1699631;82;21431;-47
2022/09/19 07:49:44;;;;;;;0.45;0.33;;;;;;;12.25;100.00;98687.99;1722732;80;21291;-49
2022/09/19 07:52:12;;;;;;;0.68;0.35;;;;;;;12.25;100.00;98694.73;1729589;80;21773;-49
2022/09/19 07:54:39;;;;;;;1.10;0.37;;;;;;;12.29;100.00;98700.79;1736908;80;21062;-48
2022/09/19 07:57:05;;;;;;;0.62;0.30;;;;;;;12.32;100.00;98702.80;1738632;80;21090;-47
2022/09/19 07:59:32;;;;;;;0.72;0.30;;;;;;;12.35;100.00;98709.78;1739467;80;21117;-46
2022/09/19 08:02:01;;;;;;;0.90;0.33;;;;;;;12.39;100.00;98714.00;1736742;80;21104;-48
2022/09/19 08:04:33;;;;;;;0.47;0.40;;;;;;;12.40;100.00;98712.55;1738570;80;21083;-48
2022/09/19 08:07:00;;;;;;;0.60;0.30;;;;;;;12.46;100.00;98723.38;1738676;80;21018;-46
2022/09/19 08:09:27;;;;;;;0.55;0.30;;;;;;;12.48;100.00;98718.74;1735069;80;21055;-49
2022/09/19 08:11:57;;;;;;;0.40;0.40;;;;;;;12.53;100.00;98721.09;1738412;80;21109;-47
2022/09/19 08:14:25;;;;;;;1.15;0.40;;;;;;;12.54;100.00;98726.39;1740438;80;21164;-49
2022/09/19 08:16:53;;;;;;;0.68;0.40;;;;;;;12.57;100.00;98730.71;1738529;80;21098;-47
2022/09/19 08:19:20;;;;;;;0.50;0.40;;;;;;;12.58;100.00;98727.04;1703385;82;21083;-49
2022/09/19 08:21:46;;;;;;;0.85;0.47;;;;;;;12.59;100.00;98727.42;1684798;82;21149;-48
2022/09/19 08:24:13;;;;;;;0.57;0.40;;;;;;;12.61;100.00;98719.56;1752249;79;21081;-49
2022/09/19 08:26:39;;;;;;;1.37;0.40;;;;;;;12.67;100.00;98727.72;1750678;79;21176;-50
2022/09/19 08:29:07;;;;;;;0.53;0.35;;;;;;;12.75;100.00;98729.38;1697276;82;21170;-47
2022/09/19 08:31:36;;;;;;;0.68;0.45;;;;;;;12.87;100.00;98728.45;1755421;79;21114;-48
2022/09/19 08:34:02;;;;;;;0.95;0.50;;;;;;;12.99;100.00;98732.10;1751950;79;21687;-49
2022/09/19 08:36:29;;;;;;;1.60;0.40;;;;;;;13.07;100.00;98734.61;1737596;79;21136;-48
2022/09/19 08:38:56;;;;;;;1.22;0.50;;;;;;;13.14;100.00;98730.98;1751393;79;21130;-48
2022/09/19 08:41:59;;;;;;;1.00;0.40;;;;;;;13.19;100.00;98738.25;1755288;79;21456;-49
2022/09/19 08:44:50;;;;;;;0.50;0.50;;;;;;;13.22;100.00;98740.25;1732533;80;21066;-48
2022/09/19 08:47:18;;;;;;;0.82;0.50;;;;;;;13.24;100.00;98746.41;1751802;79;21086;-48
2022/09/19 08:49:51;;;;;;;3.73;0.40;;;;;;;13.23;100.00;98756.84;1760471;79;20939;-50
2022/09/19 08:52:46;;;;;;;0.90;0.40;;;;;;;13.21;100.00;98749.33;1753066;79;21192;-50
2022/09/19 08:55:18;;;;;;;4.83;1.02;;;;;;;13.27;100.00;98749.86;1753838;79;20967;-50
2022/09/19 08:57:54;;;;;;;1.90;0.60;;;;;;;13.36;100.00;98749.14;1750645;79;21156;-48
2022/09/19 09:00:23;;;;;;;0.53;0.50;;;;;;;13.47;100.00;98749.20;1737586;80;21662;-48
2022/09/19 09:03:03;;;;;;;0.60;0.50;;;;;;;13.58;100.00;98755.53;1757375;79;21055;-48
2022/09/19 09:05:46;;;;;;;1.98;0.45;;;;;;;13.70;100.00;98761.83;1752064;79;21796;-47
2022/09/19 09:08:51;;;;;;;0.98;0.55;;;;;;;13.81;100.00;98764.58;1751660;80;21125;-49
2022/09/19 09:11:49;;;;;;;1.10;0.50;;;;;;;13.84;100.00;98768.90;1758048;80;21492;-48
2022/09/19 09:14:39;;;;;;;1.95;0.42;;;;;;;13.79;100.00;98775.13;1699980;82;21020;-46
2022/09/19 09:17:36;;;;;;;3.52;0.50;;;;;;;13.68;100.00;98777.81;1739257;80;21109;-50
2022/09/19 09:20:20;;;;;;;3.05;0.50;;;;;;;13.57;100.00;98778.62;1756112;80;22611;-49
2022/09/19 09:22:51;;;;;;;0.60;0.40;;;;;;;13.49;100.00;98783.27;1758026;80;20900;-49
2022/09/19 09:25:39;;;;;;;0.65;0.40;;;;;;;13.46;100.00;98775.86;1757277;79;20903;-49
2022/09/19 09:28:39;;;;;;;2.85;0.40;;;;;;;13.43;100.00;98789.14;1760332;80;21010;-46
2022/09/19 09:31:29;;;;;;;1.77;0.40;;;;;;;13.46;100.00;98790.73;1723047;80;21364;-47
2022/09/19 09:34:07;;;;;;;0.55;0.40;;;;;;;13.53;100.00;98788.80;1752814;80;21775;-46
2022/09/19 09:36:42;;;;;;;0.80;0.30;;;;;;;13.63;100.00;98788.97;1757495;80;21416;-49
2022/09/19 09:39:22;;;;;;;3.17;0.40;;;;;;;13.77;100.00;98797.41;1761571;79;20884;-47
2022/09/19 09:41:54;;;;;;;1.17;0.40;;;;;;;13.85;100.00;98791.78;1759069;80;20971;-45
2022/09/19 09:44:57;;;;;;;1.17;0.40;;;;;;;13.89;100.00;98785.62;1755043;79;20946;-47
2022/09/19 09:47:49;;;;;;;0.45;0.30;;;;;;;13.94;100.00;98788.86;1752344;79;21185;-50
2022/09/19 09:51:06;;;;;;;0.82;0.30;;;;;;;14.03;100.00;98798.11;1755440;79;21066;-48
2022/09/19 09:53:55;;;;;;;0.37;0.37;;;;;;;14.11;100.00;98794.31;1751994;80;21446;-48
2022/09/19 09:56:43;;;;;;;1.65;0.50;;;;;;;14.22;100.00;98800.59;1696819;82;21123;-50
2022/09/19 10:05:51;;;;;;;4.05;0.40;;;;;;;14.58;100.00;98814.48;1750555;80;21143;-48
2022/09/19 10:08:28;;;;;;;6.30;0.50;;;;;;;14.61;100.00;98824.21;1752785;80;22429;-47
2022/09/19 10:11:05;;;;;;;0.60;0.30;;;;;;;14.60;100.00;98823.84;1752551;79;21073;-48
2022/09/19 10:13:36;;;;;;;0.75;0.37;;;;;;;14.54;100.00;98831.10;1751618;80;21061;-48
2022/09/19 10:16:03;;;;;;;2.08;0.40;;;;;;;14.49;100.00;98828.73;1714761;81;21212;-50
2022/09/19 10:18:44;;;;;;;2.02;0.53;;;;;;;14.49;100.00;98834.16;1754254;79;21296;-48
2022/09/19 10:21:13;;;;;;;4.22;0.40;;;;;;;14.48;100.00;98834.27;1748674;79;21121;-49
2022/09/19 10:23:45;;;;;;;5.97;0.40;;;;;;;14.45;100.00;98834.04;1748747;80;21354;-48
2022/09/19 10:26:18;;;;;;;1.30;0.37;;;;;;;14.43;100.00;98831.94;1754242;80;21067;-48
2022/09/19 10:28:53;;;;;;;2.20;0.40;;;;;;;14.42;100.00;98833.41;1752176;79;21151;-49
2022/09/19 10:31:30;;;;;;;1.57;0.40;;;;;;;14.38;100.00;98837.69;1749641;80;21092;-48
2022/09/19 10:34:03;;;;;;;1.27;0.40;;;;;;;14.35;100.00;98845.18;1750994;79;21059;-48
2022/09/19 10:36:31;;;;;;;2.17;0.42;;;;;;;14.30;100.00;98844.16;1750084;79;21097;-48
2022/09/19 10:38:59;;;;;;;1.37;0.40;;;;;;;14.29;100.00;98851.91;1752443;80;21050;-47
2022/09/19 10:41:28;;;;;;;0.90;0.30;;;;;;;14.26;100.00;98856.23;1758383;79;22436;-48
2022/09/19 10:43:58;;;;;;;0.93;0.30;;;;;;;14.25;100.00;98852.28;1751451;80;21403;-50
2022/09/19 10:46:36;;;;;;;0.72;0.35;;;;;;;14.27;100.00;98856.61;1753375;80;21623;-49
2022/09/19 10:49:27;;;;;;;0.82;0.40;;;;;;;14.34;100.00;98855.63;1753568;79;21054;-49
2022/09/19 10:51:56;;;;;;;0.50;0.30;;;;;;;14.42;100.00;98862.70;1736636;80;21287;-48
2022/09/19 10:54:40;;;;;;;1.30;0.40;;;;;;;14.46;100.00;98870.94;1751664;80;21221;-49
2022/09/19 10:57:40;;;;;;;1.47;0.30;;;;;;;14.47;100.00;98882.14;1751953;80;21439;-48
2022/09/19 11:00:30;;;;;;;0.30;0.30;;;;;;;14.46;100.00;98874.17;1695519;82;21114;-48
2022/09/19 11:03:07;;;;;;;1.25;0.40;;;;;;;14.49;100.00;98890.16;1752562;80;21089;-50
2022/09/19 11:05:36;;;;;;;1.77;0.30;;;;;;;14.47;100.00;98892.97;1741431;80;21093;-51
2022/09/19 11:08:03;;;;;;;0.93;0.40;;;;;;;14.46;100.00;98895.83;1758736;80;21157;-50
2022/09/19 11:10:39;;;;;;;0.35;0.23;;;;;;;14.43;100.00;98894.70;1736186;80;21540;-48
2022/09/19 11:13:20;;;;;;;7.37;0.40;;;;;;;14.45;100.00;98903.09;1748672;79;21679;-48
2022/09/19 11:16:11;;;;;;;4.75;0.40;;;;;;;14.52;100.00;98900.27;1755405;79;21054;-47
2022/09/19 11:19:11;;;;;;;0.72;0.30;;;;;;;14.56;100.00;98903.09;1728700;80;21087;-48
2022/09/19 11:22:12;;;;;;;1.47;0.30;;;;;;;14.60;100.00;98913.20;1754090;79;21224;-46
2022/09/19 11:24:53;;;;;;;1.67;0.30;;;;;;;14.64;100.00;98909.27;1757741;79;21050;-47
2022/09/19 11:27:37;;;;;;;1.92;0.50;;;;;;;14.64;100.00;98916.90;1755480;79;21025;-47
2022/09/19 11:30:14;;;;;;;0.45;0.20;;;;;;;14.64;100.00;98920.09;1754168;79;21129;-46
2022/09/19 11:33:35;;;;;;;1.92;0.20;;;;;;;14.64;100.00;98922.80;1758175;80;21756;-49
2022/09/19 11:36:46;;;;;;;0.70;0.20;;;;;;;14.62;100.00;98921.59;1732990;79;21126;-47
2022/09/19 11:39:23;;;;;;;0.65;0.20;;;;;;;14.58;100.00;98924.64;1761778;79;21019;-49
2022/09/19 11:42:20;;;;;;;1.17;0.30;;;;;;;14.51;100.00;98927.46;1757050;79;21512;-46
2022/09/19 11:45:15;;;;;;;0.62;0.30;;;;;;;14.49;100.00;98926.70;1757276;79;21067;-48
2022/09/19 11:48:33;;;;;;;3.60;0.30;;;;;;;14.45;100.00;98930.16;1759713;80;21030;-48
2022/09/19 11:51:38;;;;;;;0.80;0.20;;;;;;;14.42;100.00;98938.51;1756756;80;21128;-48
2022/09/19 11:54:34;;;;;;;2.05;0.20;;;;;;;14.41;100.00;98928.66;1678261;83;21176;-48
2022/09/19 11:57:12;;;;;;;0.30;0.10;;;;;;;14.38;100.00;98939.22;1678789;83;21160;-49
2022/09/19 12:00:05;;;;;;;2.05;0.40;;;;;;;14.35;100.00;98931.32;1740478;79;21667;-49
2022/09/19 12:03:00;;;;;;;0.57;0.20;;;;;;;14.35;100.00;98937.22;1750484;79;21022;-49
2022/09/19 12:06:04;;;;;;;0.95;0.20;;;;;;;14.36;100.00;98931.70;1764325;79;22435;-47
2022/09/19 12:09:02;;;;;;;0.40;0.13;;;;;;;14.37;100.00;98934.75;1698495;82;20903;-50
2022/09/19 12:11:46;;;;;;;0.85;0.20;;;;;;;14.39;100.00;98933.31;1699912;82;20951;-48
2022/09/19 12:14:26;;;;;;;0.53;0.20;;;;;;;14.42;100.00;98926.33;1761679;80;21043;-47
2022/09/19 12:17:00;;;;;;;1.00;0.20;;;;;;;14.44;100.00;98930.27;1761459;80;20874;-48